Terminal Aerodrome Forecast
Issued by NWS

Home | Current Version | Previous Version | Text Only | Print | Product List | Glossary On
Versions: 1 2 3 4 5 6 7 8 9 10 11 12 13 14 15 16 17 18 19 20 21 22 23 24 25 26 27 28 29
268
FTUS46 KSGX 231359 AAA
TAFSAN
TAF AMD
KSAN 231359Z 2314/2418 VRB03KT P6SM OVC006
     FM231700 VRB04KT P6SM SCT009
     FM231900 27011KT P6SM FEW250
     FM240100 VRB04KT P6SM SCT008
     FM240500 VRB03KT 5SM BR OVC006
     FM241700 VRB04KT P6SM SCT008=

USA.gov is the U.S. government's official web portal to all federal, state and local government web resources and services.